MHTE

Tela Airport

Airport
ICAO code
MHTE
IATA Code
TEA
Summary
ICAO Region
CARSAM
ICAO Territory
Location

Tela, Atlantida Department

Serving
Tela
Coordinates
15° 46' 36" N , 87° 28' 21" W
KCC
Metar
Observation
MHTE 261600Z 36006KT 9999 SCT028TCU FEW032CB BKN080 28/25 Q1014
Station
Tela
Date/Time
2023-01-26 16:00:00
Wind direction
360°
Wind speed
06 kts
Lowest cloud amount
scattered clouds
Temperature
28°C
Dew point
25°C
Humidity
83%
QNH
1014 hPa
Weather condition
n/a

Tela Airport is an airport serving Tela, a town in the Atlántida Department on the northern coast of Honduras.

Climatology

Tropical monsoon climate (Köppen climate classification Am)

Runways

Designator Length Width Surface Rops
6/24 1346 30 ASP No/No

Airport map

Aerial View

SKYbrary Partners:

Safety knowledge contributed by: